Time;durP1;ratioP1;P1;durP2;ratioP2;P2;SDS_P1;SDS_P2;PMS_P1;PMS_P2;Temp;Humidity;BMP_temperature;BMP_pressure;BME280_temperature;BME280_humidity;BME280_pressure;Samples;Min_cycle;Max_cycle;Signal;HPM_P1;HPM_P2
2022/01/10 00:00:51;;;;;;;24.67;13.60;;;0.70;99.90;;;;;;4994213;28;20203;-73
2022/01/10 00:03:18;;;;;;;20.87;13.43;;;0.60;99.90;;;;;;4994391;28;20264;-73
2022/01/10 00:05:45;;;;;;;22.90;13.67;;;0.60;99.90;;;;;;4994484;28;20211;-74
2022/01/10 00:08:14;;;;;;;24.27;14.13;;;0.60;99.90;;;;;;4994337;28;20199;-73
2022/01/10 00:10:41;;;;;;;22.80;13.93;;;0.60;99.90;;;;;;4994403;28;20206;-73
2022/01/10 00:13:08;;;;;;;23.13;14.53;;;0.70;99.90;;;;;;4993890;28;20254;-74
2022/01/10 00:15:35;;;;;;;25.97;15.27;;;0.60;99.90;;;;;;4995297;28;20656;-74
2022/01/10 00:18:03;;;;;;;28.07;15.40;;;0.60;99.90;;;;;;5003087;28;20234;-73
2022/01/10 00:20:30;;;;;;;26.27;16.50;;;0.60;99.90;;;;;;5004296;28;20287;-73
2022/01/10 00:22:56;;;;;;;25.90;16.10;;;0.60;99.90;;;;;;5004115;28;20564;-73
2022/01/10 00:25:24;;;;;;;29.33;16.60;;;0.60;99.90;;;;;;5004209;28;20234;-73
2022/01/10 00:27:53;;;;;;;27.57;17.30;;;0.70;99.90;;;;;;4998989;28;20212;-73
2022/01/10 00:30:20;;;;;;;26.70;15.57;;;0.70;99.90;;;;;;4998530;28;20298;-73
2022/01/10 00:32:47;;;;;;;35.60;18.07;;;0.80;99.90;;;;;;5002978;28;20196;-73
2022/01/10 00:35:16;;;;;;;28.03;16.50;;;0.70;99.90;;;;;;5004312;28;20239;-73
2022/01/10 00:37:43;;;;;;;26.83;16.83;;;0.70;99.90;;;;;;5005115;28;20199;-73
2022/01/10 00:40:11;;;;;;;37.63;19.17;;;0.70;99.90;;;;;;5004587;28;20203;-74
2022/01/10 00:42:38;;;;;;;34.07;17.93;;;0.70;99.90;;;;;;4998454;28;20715;-74
2022/01/10 00:45:17;;;;;;;32.13;18.17;;;0.70;99.90;;;;;;4997524;28;20262;-74
2022/01/10 00:47:45;;;;;;;28.40;18.07;;;0.80;99.90;;;;;;4997336;28;20199;-73
2022/01/10 00:50:12;;;;;;;36.97;18.83;;;0.80;99.90;;;;;;4997275;28;20258;-73
2022/01/10 00:52:40;;;;;;;36.70;19.47;;;0.80;99.90;;;;;;4997076;28;20718;-74
2022/01/10 00:55:08;;;;;;;31.10;18.83;;;0.70;99.90;;;;;;4996978;28;20621;-73
2022/01/10 00:57:34;;;;;;;34.37;18.87;;;0.80;99.90;;;;;;4996800;28;20207;-73
2022/01/10 01:00:02;;;;;;;27.37;17.90;;;0.70;99.90;;;;;;4997060;28;20196;-74
2022/01/10 01:02:32;;;;;;;29.57;18.00;;;0.70;99.90;;;;;;4996877;28;20234;-74
2022/01/10 01:04:58;;;;;;;34.27;16.93;;;0.70;99.90;;;;;;4996735;28;20204;-74
2022/01/10 01:07:25;;;;;;;35.37;18.87;;;0.70;99.90;;;;;;4996483;28;20670;-74
2022/01/10 01:10:04;;;;;;;33.67;18.83;;;0.70;99.90;;;;;;4996430;28;20200;-74
2022/01/10 01:12:41;;;;;;;26.27;17.73;;;0.70;99.90;;;;;;4996937;28;20294;-74
2022/01/10 01:15:19;;;;;;;32.80;18.40;;;0.70;99.90;;;;;;4997173;28;20227;-74
2022/01/10 01:18:00;;;;;;;30.37;17.93;;;0.70;99.90;;;;;;4997160;28;20199;-74
2022/01/10 01:20:43;;;;;;;34.83;18.97;;;0.70;99.90;;;;;;4996994;28;20198;-74
2022/01/10 01:25:57;;;;;;;28.67;17.27;;;0.60;99.90;;;;;;4996555;28;20624;-74
2022/01/10 01:28:24;;;;;;;29.80;18.20;;;0.60;99.90;;;;;;4995198;28;20203;-74
2022/01/10 01:30:51;;;;;;;32.23;18.40;;;0.60;99.90;;;;;;4996372;28;20656;-73
2022/01/10 01:33:18;;;;;;;30.90;17.90;;;0.60;99.90;;;;;;4996608;28;20274;-74
2022/01/10 01:35:45;;;;;;;29.63;17.77;;;0.60;99.90;;;;;;4996410;28;20234;-73
2022/01/10 01:38:11;;;;;;;30.43;18.07;;;0.60;99.90;;;;;;4996214;28;20203;-74
2022/01/10 01:40:44;;;;;;;32.73;18.20;;;0.60;99.90;;;;;;4996245;28;20208;-74
2022/01/10 01:43:12;;;;;;;25.53;17.00;;;0.60;99.90;;;;;;4995991;28;20210;-74
2022/01/10 01:45:41;;;;;;;29.23;17.87;;;0.70;99.90;;;;;;4996183;28;20199;-73
2022/01/10 01:48:08;;;;;;;33.80;17.87;;;0.60;99.90;;;;;;4996805;28;20196;-73
2022/01/10 01:50:35;;;;;;;31.90;17.33;;;0.60;99.90;;;;;;4995930;28;20209;-74
2022/01/10 01:53:02;;;;;;;33.07;17.40;;;0.60;99.90;;;;;;4996132;28;20262;-74
2022/01/10 01:55:29;;;;;;;27.97;18.20;;;0.60;99.90;;;;;;4995643;28;20286;-74
2022/01/10 01:57:56;;;;;;;27.97;17.27;;;0.50;99.90;;;;;;4995836;28;20204;-73
2022/01/10 02:00:25;;;;;;;31.57;18.10;;;0.60;99.90;;;;;;4995974;28;20195;-74
2022/01/10 02:02:53;;;;;;;30.00;17.60;;;0.60;99.90;;;;;;4995782;28;20208;-73
2022/01/10 02:05:20;;;;;;;32.80;18.03;;;0.50;99.90;;;;;;4995767;28;20207;-73
2022/01/10 02:07:47;;;;;;;28.30;18.47;;;0.60;99.90;;;;;;4995253;28;20603;-73
2022/01/10 02:10:15;;;;;;;35.67;18.93;;;0.60;99.90;;;;;;4995298;28;20230;-73
2022/01/10 02:12:41;;;;;;;30.87;17.83;;;0.50;99.90;;;;;;4995535;28;20667;-74
2022/01/10 02:15:09;;;;;;;30.73;18.63;;;0.50;99.90;;;;;;4995560;28;20228;-74
2022/01/10 02:17:45;;;;;;;29.13;18.80;;;0.50;99.90;;;;;;4995470;28;20655;-73
2022/01/10 02:20:13;;;;;;;33.10;18.77;;;0.50;99.90;;;;;;4995428;28;20663;-73
2022/01/10 02:22:40;;;;;;;27.17;17.10;;;0.50;99.90;;;;;;4995377;28;20203;-73
2022/01/10 02:25:07;;;;;;;27.23;17.70;;;0.50;99.90;;;;;;4995385;28;20652;-73
2022/01/10 02:27:34;;;;;;;28.23;18.27;;;0.50;99.90;;;;;;4995504;28;20199;-73
2022/01/10 02:30:01;;;;;;;31.83;18.33;;;0.40;99.90;;;;;;4995329;28;20200;-73
2022/01/10 02:32:28;;;;;;;27.80;17.13;;;0.40;99.90;;;;;;4995084;28;20203;-73
2022/01/10 02:34:54;;;;;;;29.77;18.80;;;0.50;99.90;;;;;;4994710;28;20230;-73
2022/01/10 02:37:33;;;;;;;36.80;18.87;;;0.40;99.90;;;;;;4995097;28;20254;-73
2022/01/10 02:40:03;;;;;;;34.20;18.40;;;0.40;99.90;;;;;;4994917;28;20548;-73
2022/01/10 02:42:29;;;;;;;34.97;20.43;;;0.40;99.90;;;;;;4995026;28;20207;-73
2022/01/10 02:44:56;;;;;;;33.40;19.37;;;0.40;99.90;;;;;;4995002;28;20207;-73
2022/01/10 02:47:23;;;;;;;31.03;18.73;;;0.40;99.90;;;;;;4994793;28;20718;-73
2022/01/10 02:49:50;;;;;;;30.80;18.37;;;0.40;99.90;;;;;;4994841;28;20200;-73
2022/01/10 02:52:16;;;;;;;34.77;19.83;;;0.40;99.90;;;;;;4995237;28;20208;-73
2022/01/10 02:54:44;;;;;;;32.47;18.03;;;0.40;99.90;;;;;;4995025;28;20699;-73
2022/01/10 02:57:11;;;;;;;36.23;19.87;;;0.40;99.90;;;;;;4995046;28;20254;-73
2022/01/10 02:59:39;;;;;;;35.43;19.40;;;0.30;99.90;;;;;;4995254;28;20231;-72
2022/01/10 03:02:08;;;;;;;36.93;18.80;;;0.30;99.90;;;;;;4994840;28;20247;-73
2022/01/10 03:04:34;;;;;;;32.40;18.77;;;0.30;99.90;;;;;;4994442;28;20204;-73
2022/01/10 03:07:01;;;;;;;31.40;19.30;;;0.40;99.90;;;;;;4994765;28;20541;-73
2022/01/10 03:09:28;;;;;;;41.67;20.03;;;0.30;99.90;;;;;;4994787;28;20210;-73
2022/01/10 03:11:56;;;;;;;34.13;19.00;;;0.40;99.90;;;;;;4994554;28;20251;-73
2022/01/10 03:14:22;;;;;;;32.43;19.47;;;0.40;99.90;;;;;;4994474;28;20222;-74
2022/01/10 03:16:49;;;;;;;33.83;19.00;;;0.40;99.90;;;;;;4994490;28;20199;-73
2022/01/10 03:19:16;;;;;;;30.00;19.47;;;0.30;99.90;;;;;;4994892;28;20204;-74
2022/01/10 03:21:42;;;;;;;39.47;20.87;;;0.20;99.90;;;;;;4994348;28;20787;-74
2022/01/10 03:24:09;;;;;;;41.97;20.57;;;0.30;99.90;;;;;;4995457;28;20207;-74
2022/01/10 03:26:36;;;;;;;38.67;20.20;;;0.20;99.90;;;;;;4998392;28;20231;-74
2022/01/10 03:29:04;;;;;;;31.67;18.90;;;0.20;99.90;;;;;;5002076;28;20200;-74
2022/01/10 03:31:30;;;;;;;37.03;19.80;;;0.10;99.90;;;;;;5001711;28;20602;-74
2022/01/10 03:33:57;;;;;;;34.73;20.20;;;0.10;99.90;;;;;;5002157;28;20204;-74
2022/01/10 03:36:24;;;;;;;37.00;19.97;;;0.00;99.90;;;;;;5003249;28;20228;-74
2022/01/10 03:38:50;;;;;;;39.53;18.87;;;0.00;99.90;;;;;;5002807;28;20203;-73
2022/01/10 03:41:17;;;;;;;37.23;20.03;;;-0.10;99.90;;;;;;4999010;28;20257;-73
2022/01/10 03:43:44;;;;;;;39.30;20.50;;;-0.10;99.90;;;;;;4995561;28;20195;-73
2022/01/10 03:46:12;;;;;;;36.60;19.97;;;0.00;99.90;;;;;;4994837;28;20251;-74
2022/01/10 03:48:38;;;;;;;40.67;21.37;;;0.00;99.90;;;;;;4994569;28;20200;-74
2022/01/10 03:51:06;;;;;;;35.07;21.60;;;0.00;99.90;;;;;;4994617;28;20251;-74
2022/01/10 03:53:32;;;;;;;34.23;20.57;;;0.00;99.90;;;;;;4998154;28;20203;-74
2022/01/10 03:55:59;;;;;;;36.33;20.20;;;0.00;99.90;;;;;;4998025;28;20235;-73
2022/01/10 03:58:25;;;;;;;42.43;20.63;;;0.00;99.90;;;;;;4998035;28;20230;-73
2022/01/10 04:00:52;;;;;;;36.57;20.83;;;0.00;99.90;;;;;;4998017;28;20199;-74
2022/01/10 04:03:20;;;;;;;45.23;23.63;;;0.00;99.90;;;;;;4998001;28;20286;-74
2022/01/10 04:05:47;;;;;;;40.03;22.90;;;0.00;99.90;;;;;;4997848;28;20204;-73
2022/01/10 04:08:14;;;;;;;34.17;20.60;;;0.00;99.90;;;;;;4997909;28;20659;-74
2022/01/10 04:10:41;;;;;;;39.60;21.17;;;0.00;99.90;;;;;;4998176;28;20251;-73
2022/01/10 04:13:07;;;;;;;43.47;21.77;;;0.10;99.90;;;;;;4997941;28;20655;-73
2022/01/10 04:15:34;;;;;;;40.90;21.90;;;0.10;99.90;;;;;;4997824;28;20237;-74
2022/01/10 04:18:02;;;;;;;35.20;20.97;;;0.10;99.90;;;;;;4997801;28;20246;-74
2022/01/10 04:20:31;;;;;;;37.03;20.87;;;0.10;99.90;;;;;;4998464;28;20200;-74
2022/01/10 04:22:57;;;;;;;46.77;21.47;;;0.00;99.90;;;;;;4999520;28;20200;-73
2022/01/10 04:25:24;;;;;;;42.30;21.27;;;0.10;99.90;;;;;;4999830;28;20207;-73
2022/01/10 04:27:51;;;;;;;39.20;20.50;;;0.10;99.90;;;;;;4999775;28;20258;-73
2022/01/10 04:30:18;;;;;;;48.67;22.00;;;0.10;99.90;;;;;;4999305;28;20208;-73
2022/01/10 04:32:45;;;;;;;42.57;20.43;;;0.10;99.90;;;;;;4998427;28;20199;-73
2022/01/10 04:35:12;;;;;;;43.93;22.67;;;0.10;99.90;;;;;;4998115;28;20235;-73
2022/01/10 04:37:40;;;;;;;44.63;21.67;;;0.00;99.90;;;;;;4997369;28;20222;-73
2022/01/10 04:40:10;;;;;;;37.53;20.87;;;0.00;99.90;;;;;;4997095;28;20195;-73
2022/01/10 04:42:36;;;;;;;41.33;21.97;;;0.00;99.90;;;;;;4997563;28;20226;-73
2022/01/10 04:45:03;;;;;;;38.13;22.33;;;0.00;99.90;;;;;;4997154;28;20572;-73
2022/01/10 04:47:30;;;;;;;41.20;22.03;;;0.00;99.90;;;;;;4997252;28;20204;-73
2022/01/10 04:50:28;;;;;;;42.90;23.37;;;0.00;99.90;;;;;;4997164;28;20730;-73
2022/01/10 04:52:56;;;;;;;40.63;22.10;;;0.00;99.90;;;;;;4997324;28;20262;-73
2022/01/10 04:55:23;;;;;;;44.20;22.50;;;0.10;99.90;;;;;;4997098;28;20235;-73
2022/01/10 04:57:50;;;;;;;42.83;21.90;;;0.00;99.90;;;;;;4997501;28;20204;-73
2022/01/10 05:00:17;;;;;;;38.07;22.20;;;0.00;99.90;;;;;;4997759;28;20200;-74
2022/01/10 05:02:48;;;;;;;44.33;22.47;;;0.10;99.90;;;;;;4997549;28;20208;-73
2022/01/10 05:05:14;;;;;;;44.80;22.77;;;0.10;99.90;;;;;;4997890;28;20208;-74
2022/01/10 05:07:41;;;;;;;43.67;21.17;;;0.10;99.90;;;;;;4998198;28;20200;-74
2022/01/10 05:10:09;;;;;;;46.17;24.00;;;0.10;99.90;;;;;;4998350;28;20231;-74
2022/01/10 05:12:36;;;;;;;48.13;22.60;;;0.00;99.90;;;;;;4998167;28;20200;-74
2022/01/10 05:15:03;;;;;;;38.03;22.33;;;0.10;99.90;;;;;;4997763;28;20227;-73
2022/01/10 05:17:30;;;;;;;40.80;22.47;;;0.00;99.90;;;;;;4996819;28;20254;-73
2022/01/10 05:19:57;;;;;;;37.13;21.07;;;0.00;99.90;;;;;;4996370;28;20235;-74
2022/01/10 05:22:24;;;;;;;43.17;21.97;;;0.00;99.90;;;;;;4996612;28;20579;-73
2022/01/10 05:24:50;;;;;;;41.30;22.07;;;0.00;99.90;;;;;;4997110;28;20575;-74
2022/01/10 05:27:18;;;;;;;43.30;21.40;;;0.00;99.90;;;;;;4996600;28;20206;-74
2022/01/10 05:29:45;;;;;;;40.07;21.20;;;0.00;99.90;;;;;;4998796;28;20250;-74
2022/01/10 05:32:12;;;;;;;47.37;23.50;;;0.00;99.90;;;;;;4996124;28;20675;-73
2022/01/10 05:34:38;;;;;;;40.30;21.93;;;0.00;99.90;;;;;;4996673;28;20196;-74
2022/01/10 05:37:05;;;;;;;42.60;21.77;;;0.10;99.90;;;;;;4996611;28;20293;-74
2022/01/10 05:39:32;;;;;;;42.43;21.77;;;0.00;99.90;;;;;;4996245;28;20656;-73
2022/01/10 05:41:58;;;;;;;39.57;21.80;;;0.00;99.90;;;;;;4996065;28;20270;-74
2022/01/10 05:44:27;;;;;;;40.30;22.30;;;0.10;99.90;;;;;;4996230;28;20655;-74
2022/01/10 05:46:53;;;;;;;37.20;21.50;;;0.00;99.90;;;;;;4996015;28;20239;-74
2022/01/10 05:49:26;;;;;;;40.10;22.23;;;0.10;99.90;;;;;;4996296;28;20246;-73
2022/01/10 05:51:53;;;;;;;38.23;21.53;;;0.10;99.90;;;;;;4995977;28;20323;-74
2022/01/10 05:54:19;;;;;;;41.37;22.73;;;0.10;99.90;;;;;;4996113;28;20254;-73
2022/01/10 05:56:46;;;;;;;41.10;21.60;;;0.10;99.90;;;;;;4995735;28;20278;-74
2022/01/10 05:59:13;;;;;;;42.37;22.30;;;0.10;99.90;;;;;;4995634;28;20219;-73
2022/01/10 06:01:42;;;;;;;37.87;21.60;;;0.10;99.90;;;;;;4995765;28;20203;-74
2022/01/10 06:04:10;;;;;;;36.80;21.03;;;0.10;99.90;;;;;;4995850;28;20203;-73
2022/01/10 06:06:37;;;;;;;44.87;22.37;;;0.20;99.90;;;;;;4995472;28;20254;-73
2022/01/10 06:09:04;;;;;;;36.90;20.20;;;0.20;99.90;;;;;;4995503;28;20651;-73
2022/01/10 06:11:31;;;;;;;38.13;20.63;;;0.20;99.90;;;;;;4995362;28;20199;-73
2022/01/10 06:13:57;;;;;;;43.73;22.20;;;0.20;99.90;;;;;;4994818;28;20270;-72
2022/01/10 06:16:24;;;;;;;39.73;21.30;;;0.20;99.90;;;;;;4995948;28;20231;-73
2022/01/10 06:18:52;;;;;;;40.40;21.67;;;0.20;99.90;;;;;;4997785;28;20258;-72
2022/01/10 06:21:19;;;;;;;40.00;22.63;;;0.20;99.90;;;;;;4994377;28;20251;-72
2022/01/10 06:23:45;;;;;;;39.73;21.77;;;0.20;99.90;;;;;;4995127;28;20246;-73
2022/01/10 06:26:12;;;;;;;48.07;23.07;;;0.20;99.90;;;;;;4994980;28;20659;-72
2022/01/10 06:28:39;;;;;;;43.83;23.67;;;0.20;99.90;;;;;;4995206;28;20211;-72
2022/01/10 06:31:05;;;;;;;40.30;22.40;;;0.20;99.90;;;;;;4994806;28;20199;-72
2022/01/10 06:33:32;;;;;;;46.67;24.77;;;0.20;99.90;;;;;;4995438;28;20258;-72
2022/01/10 06:36:00;;;;;;;44.13;23.67;;;0.20;99.90;;;;;;5003413;28;20239;-72
2022/01/10 06:38:26;;;;;;;41.17;22.53;;;0.20;99.90;;;;;;5003791;28;20222;-72
2022/01/10 06:40:53;;;;;;;42.07;22.83;;;0.30;99.90;;;;;;5003895;28;20227;-71
2022/01/10 06:43:20;;;;;;;38.20;22.43;;;0.30;99.90;;;;;;5003852;28;20207;-72
2022/01/10 06:45:46;;;;;;;46.03;24.37;;;0.40;99.90;;;;;;4998257;28;20716;-72
2022/01/10 06:48:13;;;;;;;45.03;24.53;;;0.30;99.90;;;;;;4994231;28;20730;-72
2022/01/10 06:50:40;;;;;;;42.80;24.50;;;0.30;99.90;;;;;;4992601;28;20203;-71
2022/01/10 06:53:08;;;;;;;43.63;24.00;;;0.30;99.90;;;;;;4992417;28;20208;-72
2022/01/10 06:55:34;;;;;;;46.67;24.43;;;0.30;99.90;;;;;;4992375;28;20223;-71
2022/01/10 06:58:01;;;;;;;48.67;23.70;;;0.30;99.90;;;;;;4992438;28;20199;-71
2022/01/10 07:00:28;;;;;;;40.93;24.57;;;0.30;99.90;;;;;;4992598;28;20199;-71
2022/01/10 07:02:54;;;;;;;43.80;24.27;;;0.40;99.90;;;;;;4992379;28;20254;-70
2022/01/10 07:05:21;;;;;;;47.73;23.03;;;0.30;99.90;;;;;;4992201;28;20738;-71
2022/01/10 07:07:48;;;;;;;47.33;22.57;;;0.30;99.90;;;;;;4992363;28;20250;-71
2022/01/10 07:10:16;;;;;;;42.10;21.70;;;0.20;99.90;;;;;;4992804;28;20617;-71
2022/01/10 07:12:42;;;;;;;42.30;24.17;;;0.20;99.90;;;;;;4993880;28;20648;-71
2022/01/10 07:15:09;;;;;;;40.43;21.70;;;0.20;99.90;;;;;;4995838;28;20183;-69
2022/01/10 07:17:36;;;;;;;37.63;20.57;;;0.30;99.90;;;;;;4994813;28;20593;-72
2022/01/10 07:20:03;;;;;;;44.43;21.83;;;0.30;99.90;;;;;;4994601;28;20199;-71
2022/01/10 07:22:30;;;;;;;42.50;21.53;;;0.30;99.90;;;;;;4994503;28;20246;-71
2022/01/10 07:24:57;;;;;;;41.00;21.47;;;0.30;99.90;;;;;;4994348;28;20207;-71
2022/01/10 07:27:25;;;;;;;41.70;22.03;;;0.20;99.90;;;;;;4994558;28;20211;-71
2022/01/10 07:29:53;;;;;;;39.10;21.37;;;0.10;99.90;;;;;;4994363;28;20231;-71
2022/01/10 07:32:19;;;;;;;42.80;22.20;;;0.00;99.90;;;;;;4994277;28;20537;-70
2022/01/10 07:34:47;;;;;;;44.60;20.87;;;0.00;99.90;;;;;;4994523;28;20656;-71
2022/01/10 07:37:16;;;;;;;43.17;21.53;;;-0.10;99.90;;;;;;4994467;28;20227;-72
2022/01/10 07:39:42;;;;;;;42.37;21.07;;;-0.10;99.90;;;;;;4994381;28;20200;-70
2022/01/10 07:42:09;;;;;;;49.20;20.77;;;-0.10;99.90;;;;;;4994211;28;20207;-71
2022/01/10 07:44:37;;;;;;;44.00;21.67;;;-0.20;99.90;;;;;;4994181;28;20246;-72
2022/01/10 07:47:04;;;;;;;47.20;21.13;;;-0.20;99.90;;;;;;4993995;28;20622;-72
2022/01/10 07:49:31;;;;;;;42.40;22.27;;;-0.20;99.90;;;;;;4994053;28;20598;-72
2022/01/10 07:51:58;;;;;;;44.93;22.40;;;-0.20;99.90;;;;;;4994011;28;20294;-72
2022/01/10 07:54:25;;;;;;;49.33;22.20;;;-0.20;99.90;;;;;;4994073;28;20602;-71
2022/01/10 07:56:52;;;;;;;42.67;21.17;;;-0.30;99.90;;;;;;4994044;28;20219;-72
2022/01/10 07:59:19;;;;;;;44.27;21.37;;;-0.20;99.90;;;;;;4994055;28;20211;-72
2022/01/10 08:01:47;;;;;;;43.40;21.77;;;-0.30;99.90;;;;;;4994055;28;20695;-72
2022/01/10 08:04:14;;;;;;;44.67;23.03;;;-0.20;99.90;;;;;;4994154;28;20208;-70
2022/01/10 08:06:41;;;;;;;39.80;21.63;;;-0.20;99.90;;;;;;4996281;28;20603;-71
2022/01/10 08:09:08;;;;;;;45.83;22.37;;;-0.20;99.90;;;;;;4998482;28;20652;-71
2022/01/10 08:11:35;;;;;;;46.87;22.37;;;-0.20;99.90;;;;;;4998115;28;20227;-71
2022/01/10 08:14:02;;;;;;;50.90;22.37;;;-0.20;99.90;;;;;;4997188;28;20742;-72
2022/01/10 08:16:29;;;;;;;48.20;23.20;;;-0.10;99.90;;;;;;4996153;28;20318;-71
2022/01/10 08:18:57;;;;;;;51.73;23.90;;;-0.20;99.90;;;;;;4994608;28;20200;-71
2022/01/10 08:21:24;;;;;;;45.17;22.67;;;-0.20;99.90;;;;;;4994276;28;20262;-71
2022/01/10 08:23:50;;;;;;;49.67;25.03;;;-0.20;99.90;;;;;;4994243;28;20259;-71
2022/01/10 08:26:17;;;;;;;53.00;25.27;;;-0.10;99.90;;;;;;4994257;28;20199;-71
2022/01/10 08:28:44;;;;;;;53.80;25.43;;;-0.10;99.90;;;;;;4994274;28;20197;-71
2022/01/10 08:31:11;;;;;;;50.43;24.77;;;0.00;99.90;;;;;;4994201;28;20234;-71
2022/01/10 08:33:38;;;;;;;53.67;24.90;;;0.00;99.90;;;;;;4994177;28;20545;-71
2022/01/10 08:36:06;;;;;;;45.47;23.70;;;0.10;99.90;;;;;;4993742;28;20261;-71
2022/01/10 08:38:33;;;;;;;45.00;24.20;;;0.10;99.90;;;;;;4996946;28;20254;-71
2022/01/10 08:41:00;;;;;;;42.77;22.50;;;0.20;99.90;;;;;;4997818;28;20211;-71
2022/01/10 08:43:26;;;;;;;42.23;22.33;;;0.30;99.90;;;;;;4997858;28;20537;-71
2022/01/10 08:45:53;;;;;;;35.97;22.00;;;0.60;99.90;;;;;;4997607;28;20583;-70
2022/01/10 08:48:20;;;;;;;40.87;21.17;;;0.90;99.90;;;;;;4997454;28;20200;-70
2022/01/10 08:50:47;;;;;;;38.90;20.73;;;1.10;99.90;;;;;;4997663;28;20199;-70
2022/01/10 08:53:15;;;;;;;36.23;20.57;;;1.30;99.90;;;;;;4997602;28;20199;-70
2022/01/10 08:55:41;;;;;;;33.60;18.80;;;1.60;99.90;;;;;;4997097;28;20196;-70
2022/01/10 08:58:08;;;;;;;25.80;16.40;;;1.70;99.90;;;;;;4996791;28;20211;-70
2022/01/10 09:00:35;;;;;;;24.07;16.30;;;1.60;99.90;;;;;;4997490;28;20660;-71
2022/01/10 09:03:02;;;;;;;27.33;15.50;;;1.50;99.90;;;;;;5001039;28;20204;-70
2022/01/10 09:05:29;;;;;;;28.90;15.37;;;1.30;99.90;;;;;;5002037;28;20205;-70
2022/01/10 09:07:58;;;;;;;23.13;13.50;;;1.20;99.90;;;;;;5003172;28;20298;-72
2022/01/10 09:10:26;;;;;;;21.90;14.40;;;1.10;99.90;;;;;;5003102;28;20626;-72
2022/01/10 09:12:53;;;;;;;23.87;14.67;;;1.10;99.90;;;;;;5001748;28;20227;-72
2022/01/10 09:15:20;;;;;;;24.17;14.53;;;1.20;99.90;;;;;;5002371;28;20204;-71
2022/01/10 09:17:47;;;;;;;21.47;13.43;;;1.40;99.90;;;;;;5001827;28;20227;-72
2022/01/10 09:20:14;;;;;;;22.40;12.33;;;1.70;99.90;;;;;;4998474;28;20226;-71
2022/01/10 09:22:40;;;;;;;22.23;12.13;;;2.00;99.90;;;;;;4996830;28;20269;-71
2022/01/10 09:25:08;;;;;;;23.30;10.90;;;2.30;99.90;;;;;;4996484;28;20599;-72
2022/01/10 09:27:36;;;;;;;15.57;11.03;;;2.70;99.90;;;;;;4996573;28;20196;-71
2022/01/10 09:30:03;;;;;;;15.70;10.77;;;2.90;99.90;;;;;;4997130;28;20258;-72
2022/01/10 09:32:30;;;;;;;15.80;10.30;;;3.00;99.90;;;;;;4996535;28;20217;-71
2022/01/10 09:34:57;;;;;;;15.93;10.40;;;3.20;99.90;;;;;;4996622;28;20199;-71
2022/01/10 09:37:25;;;;;;;15.53;10.63;;;3.10;99.90;;;;;;4997517;28;20235;-74
2022/01/10 09:39:52;;;;;;;15.67;10.57;;;3.00;99.90;;;;;;4999374;28;20206;-72
2022/01/10 09:42:19;;;;;;;18.13;10.90;;;3.10;99.90;;;;;;4999079;28;20246;-71
2022/01/10 09:44:47;;;;;;;14.17;11.50;;;3.30;99.90;;;;;;5000016;28;20264;-71
2022/01/10 09:47:14;;;;;;;17.83;11.03;;;3.40;99.90;;;;;;4998307;28;20231;-72
2022/01/10 09:49:40;;;;;;;19.17;11.53;;;3.20;99.90;;;;;;4995417;28;20204;-72
2022/01/10 09:52:08;;;;;;;14.93;9.87;;;3.40;99.90;;;;;;4996525;28;20200;-73
2022/01/10 09:54:35;;;;;;;15.20;9.90;;;3.40;99.90;;;;;;4997873;28;20246;-74
2022/01/10 09:57:01;;;;;;;15.90;10.80;;;3.60;99.90;;;;;;4998494;28;20235;-74
2022/01/10 09:59:28;;;;;;;18.27;9.50;;;3.80;99.90;;;;;;4996242;28;20199;-72
2022/01/10 10:01:57;;;;;;;13.57;9.23;;;3.80;99.90;;;;;;4995739;28;20230;-72
2022/01/10 10:04:23;;;;;;;12.90;9.20;;;4.30;99.90;;;;;;4995253;28;20207;-71
2022/01/10 10:06:51;;;;;;;13.83;9.37;;;4.40;99.90;;;;;;4995031;28;20207;-71
2022/01/10 10:09:18;;;;;;;13.70;8.73;;;4.80;99.90;;;;;;4994993;28;20204;-71
2022/01/10 10:11:46;;;;;;;14.03;9.57;;;5.30;99.90;;;;;;4994776;28;20222;-72
2022/01/10 10:14:17;;;;;;;12.30;9.20;;;5.40;99.90;;;;;;4994863;28;20666;-71
2022/01/10 10:16:49;;;;;;;13.33;8.97;;;5.70;99.90;;;;;;4994856;28;20227;-72
2022/01/10 10:19:18;;;;;;;13.97;8.73;;;5.70;99.90;;;;;;4994589;28;20624;-72
2022/01/10 10:21:45;;;;;;;12.93;8.43;;;5.60;99.90;;;;;;4994698;28;20200;-72
2022/01/10 10:24:13;;;;;;;11.50;8.57;;;5.80;99.90;;;;;;4994820;28;20258;-72
2022/01/10 10:26:40;;;;;;;14.33;8.63;;;5.90;99.90;;;;;;4994888;28;20564;-72
2022/01/10 10:29:09;;;;;;;12.73;8.57;;;6.50;99.90;;;;;;4994763;28;20195;-72
2022/01/10 10:31:43;;;;;;;11.02;8.88;;;7.40;99.90;;;;;;4994516;28;20770;-73
2022/01/10 10:34:12;;;;;;;13.57;8.43;;;8.00;99.90;;;;;;4994527;28;20210;-72
2022/01/10 10:36:40;;;;;;;14.20;8.77;;;9.20;99.90;;;;;;4994182;28;20262;-72
2022/01/10 10:39:10;;;;;;;12.15;8.77;;;10.10;99.90;;;;;;4994546;28;20200;-72
2022/01/10 10:41:37;;;;;;;12.40;8.73;;;9.80;99.90;;;;;;4994136;28;20652;-72
2022/01/10 10:44:05;;;;;;;13.80;8.30;;;9.40;99.90;;;;;;4994168;28;20226;-73
2022/01/10 10:46:31;;;;;;;12.60;8.30;;;9.40;99.90;;;;;;4994045;28;20204;-73
2022/01/10 10:49:03;;;;;;;13.47;8.70;;;9.40;99.90;;;;;;4994675;28;20200;-73
2022/01/10 10:51:31;;;;;;;11.40;8.57;;;8.70;99.90;;;;;;4994308;28;20207;-72
2022/01/10 10:54:02;;;;;;;12.73;9.10;;;8.40;99.90;;;;;;4994336;28;20196;-73
2022/01/10 10:56:34;;;;;;;13.97;8.97;;;7.90;99.90;;;;;;4994166;28;20211;-73
2022/01/10 10:59:01;;;;;;;12.57;9.20;;;8.50;99.90;;;;;;4994089;28;20214;-73
2022/01/10 11:01:27;;;;;;;13.03;8.80;;;8.20;99.90;;;;;;4993632;28;20204;-73
2022/01/10 11:03:55;;;;;;;12.77;8.50;;;8.60;99.90;;;;;;4994175;28;20254;-73
2022/01/10 11:06:22;;;;;;;11.20;8.47;;;9.50;99.90;;;;;;4994051;28;20199;-73
2022/01/10 11:08:49;;;;;;;13.17;8.53;;;9.70;99.90;;;;;;4994096;28;20667;-73
2022/01/10 11:11:21;;;;;;;10.17;7.63;;;11.30;99.90;;;;;;4993878;28;20203;-73
2022/01/10 11:13:48;;;;;;;12.10;7.60;;;11.90;99.90;;;;;;4994208;28;20287;-73
2022/01/10 11:16:15;;;;;;;10.88;7.72;;;13.00;99.90;;;;;;4994098;28;20660;-73
2022/01/10 11:18:41;;;;;;;11.57;7.43;;;12.30;99.90;;;;;;4994062;28;20235;-73
2022/01/10 11:21:08;;;;;;;11.93;8.50;;;10.10;99.90;;;;;;4993905;28;20199;-73
2022/01/10 11:23:40;;;;;;;14.23;8.77;;;8.40;99.90;;;;;;4993787;28;20208;-73
2022/01/10 11:26:07;;;;;;;13.67;9.07;;;7.00;99.90;;;;;;4993757;28;20199;-73
2022/01/10 11:28:39;;;;;;;12.47;8.60;;;6.50;99.90;;;;;;4993815;28;20239;-73
2022/01/10 11:31:07;;;;;;;17.30;10.00;;;6.10;99.90;;;;;;4993680;28;20203;-73
2022/01/10 11:33:36;;;;;;;12.63;6.53;;;5.90;99.90;;;;;;4993894;28;20203;-73
2022/01/10 11:36:05;;;;;;;12.30;7.17;;;5.60;99.90;;;;;;4994489;28;20237;-73
2022/01/10 11:38:36;;;;;;;11.87;7.30;;;5.30;99.90;;;;;;4994724;28;20707;-73
2022/01/10 11:41:06;;;;;;;10.30;6.17;;;5.50;99.90;;;;;;4994889;28;20203;-73
2022/01/10 11:43:42;;;;;;;8.63;5.90;;;6.10;99.90;;;;;;4994736;28;20199;-72
2022/01/10 11:46:13;;;;;;;10.87;5.60;;;6.80;99.90;;;;;;4993732;28;20207;-74
2022/01/10 11:48:46;;;;;;;8.53;5.77;;;6.80;99.90;;;;;;4993409;28;20248;-72
2022/01/10 11:51:14;;;;;;;11.83;6.37;;;6.20;99.90;;;;;;4993461;28;20258;-73
2022/01/10 11:53:43;;;;;;;10.57;7.00;;;6.30;99.90;;;;;;4993245;28;20291;-73
2022/01/10 11:56:23;;;;;;;9.73;6.13;;;6.40;99.90;;;;;;4993678;28;20719;-72
2022/01/10 11:59:20;;;;;;;10.40;6.00;;;6.10;99.90;;;;;;4993263;28;20233;-73
2022/01/10 12:01:51;;;;;;;13.80;7.00;;;6.40;99.90;;;;;;4993199;28;20200;-73
2022/01/10 12:04:18;;;;;;;10.07;6.63;;;6.50;99.90;;;;;;4993482;28;20226;-73
2022/01/10 12:06:45;;;;;;;14.87;6.83;;;6.70;99.90;;;;;;4993301;28;20259;-73
2022/01/10 12:09:13;;;;;;;13.63;7.30;;;6.60;99.90;;;;;;4993420;28;20555;-72
2022/01/10 12:11:40;;;;;;;13.00;6.53;;;5.80;99.90;;;;;;4993997;28;20718;-73
2022/01/10 12:14:08;;;;;;;11.40;7.20;;;5.60;99.90;;;;;;4997558;28;20562;-73
2022/01/10 12:16:38;;;;;;;10.13;7.17;;;5.60;99.90;;;;;;4997934;28;20195;-72
2022/01/10 12:19:06;;;;;;;11.40;7.20;;;5.50;99.90;;;;;;4998094;28;20231;-73
2022/01/10 12:21:33;;;;;;;14.30;8.00;;;5.20;99.90;;;;;;4997988;28;20196;-72
2022/01/10 12:24:00;;;;;;;17.10;8.77;;;5.40;99.90;;;;;;4997355;28;20629;-72
2022/01/10 12:26:28;;;;;;;13.77;8.43;;;5.40;99.90;;;;;;4997937;28;20655;-72
2022/01/10 12:28:58;;;;;;;12.67;8.00;;;5.20;99.90;;;;;;4997671;28;20611;-72
2022/01/10 12:31:26;;;;;;;13.23;8.40;;;5.20;99.90;;;;;;4997767;28;20261;-73
2022/01/10 12:33:56;;;;;;;14.43;8.70;;;5.30;99.90;;;;;;4997584;28;20203;-74
2022/01/10 12:36:25;;;;;;;21.13;9.50;;;5.10;99.90;;;;;;4997679;28;20286;-72
2022/01/10 12:38:53;;;;;;;13.23;8.60;;;5.00;99.90;;;;;;4997942;28;20710;-73
2022/01/10 12:41:20;;;;;;;16.73;10.47;;;4.70;99.90;;;;;;5002718;28;20204;-73
2022/01/10 12:43:49;;;;;;;23.03;10.87;;;4.60;99.90;;;;;;4999071;28;20199;-74